createdAt,value
2016-06-14T00:00:48.600Z,0
2016-06-14T00:01:48.635Z,0
2016-06-14T00:02:48.810Z,0
2016-06-14T00:03:48.859Z,0
2016-06-14T00:04:48.878Z,0
2016-06-14T00:05:49.037Z,0
2016-06-14T00:06:48.963Z,0
2016-06-14T00:07:49.012Z,0
2016-06-14T00:08:49.031Z,0
2016-06-14T00:09:49.065Z,0
2016-06-14T00:10:49.100Z,0
2016-06-14T00:11:49.149Z,0
2016-06-14T00:12:49.185Z,0
2016-06-14T00:13:49.218Z,0
2016-06-14T00:14:50.158Z,0
2016-06-14T00:15:49.319Z,0
2016-06-14T00:16:49.024Z,0
2016-06-14T00:17:49.356Z,0
2016-06-14T00:18:49.421Z,0
2016-06-14T00:19:49.440Z,0
2016-06-14T00:20:49.334Z,0
2016-06-14T00:21:49.509Z,0
2016-06-14T00:22:49.558Z,0
2016-06-14T00:23:49.593Z,0
2016-06-14T00:24:49.643Z,0
2016-06-14T00:25:49.661Z,0
2016-06-14T00:26:49.555Z,0
2016-06-14T00:27:49.745Z,0
2016-06-14T00:28:49.795Z,0
2016-06-14T00:29:49.940Z,0
2016-06-14T00:30:49.848Z,0
2016-06-14T00:31:49.726Z,0
2016-06-14T00:32:49.918Z,0
2016-06-14T00:33:49.811Z,0
2016-06-14T00:34:50.001Z,0
2016-06-14T00:35:50.036Z,0
2016-06-14T00:36:50.070Z,0
2016-06-14T00:37:50.120Z,0
2016-06-14T00:38:50.139Z,0
2016-06-14T00:39:50.673Z,0
2016-06-14T00:40:50.224Z,0
2016-06-14T00:42:04.416Z,0
2016-06-14T00:42:50.291Z,0
2016-06-14T00:43:50.311Z,0
2016-06-14T00:44:51.392Z,0
2016-06-14T00:45:50.394Z,0
2016-06-14T00:46:50.273Z,0
2016-06-14T00:47:50.478Z,0
2016-06-14T00:48:50.498Z,0
2016-06-14T00:49:50.391Z,0
2016-06-14T00:50:50.582Z,0
2016-06-14T00:51:50.647Z,0
2016-06-14T00:52:50.666Z,0
2016-06-14T00:53:50.685Z,0
2016-06-14T00:54:50.736Z,0
2016-06-14T00:55:50.769Z,0
2016-06-14T00:56:50.648Z,0
2016-06-14T00:57:50.854Z,0
2016-06-14T00:59:05.313Z,0
2016-06-14T00:59:51.438Z,0
2016-06-14T01:00:50.957Z,0
2016-06-14T01:01:50.850Z,0
2016-06-14T01:02:51.025Z,0
2016-06-14T01:03:51.059Z,0
2016-06-14T01:04:51.094Z,0
2016-06-14T01:05:51.145Z,0
2016-06-14T01:06:50.881Z,0
2016-06-14T01:07:51.197Z,0
2016-06-14T01:08:51.262Z,0
2016-06-14T01:09:51.140Z,0
2016-06-14T01:10:51.300Z,0
2016-06-14T01:11:51.350Z,0
2016-06-14T01:12:51.399Z,0
2016-06-14T01:13:51.434Z,0
2016-06-14T01:14:51.640Z,0
2016-06-14T01:15:51.503Z,0
2016-06-14T01:16:51.552Z,0
2016-06-14T01:17:51.602Z,0
2016-06-14T01:18:51.606Z,0
2016-06-14T01:19:51.655Z,0
2016-06-14T01:20:51.690Z,0
2016-06-14T01:21:51.708Z,0
2016-06-14T01:22:51.603Z,0
2016-06-14T01:23:51.808Z,0
2016-06-14T01:24:51.827Z,0
2016-06-14T01:25:51.877Z,0
2016-06-14T01:26:51.912Z,0
2016-06-14T01:27:52.149Z,0
2016-06-14T01:28:51.980Z,0
2016-06-14T01:29:53.155Z,0
2016-06-14T01:30:51.924Z,0
2016-06-14T01:31:52.099Z,0
2016-06-14T01:32:52.148Z,0
2016-06-14T01:33:52.183Z,0
2016-06-14T01:34:52.201Z,0
2016-06-14T01:35:52.236Z,0
2016-06-14T01:36:52.271Z,0
2016-06-14T01:37:52.320Z,0
2016-06-14T01:38:52.354Z,0
2016-06-14T01:39:52.389Z,0
2016-06-14T01:40:52.439Z,0
2016-06-14T01:41:52.472Z,0
2016-06-14T01:42:52.492Z,0
2016-06-14T01:43:52.542Z,0
2016-06-14T01:44:52.607Z,0
2016-06-14T01:45:52.454Z,0
2016-06-14T01:46:52.629Z,0
2016-06-14T01:47:52.680Z,0
2016-06-14T01:48:52.713Z,0
2016-06-14T01:49:52.747Z,0
2016-06-14T01:50:52.782Z,0
2016-06-14T01:51:52.832Z,0
2016-06-14T01:52:52.866Z,0
2016-06-14T01:53:52.917Z,0
2016-06-14T01:54:52.778Z,0
2016-06-14T01:55:52.969Z,0
2016-06-14T01:56:53.019Z,0
2016-06-14T01:57:53.054Z,0
2016-06-14T01:58:53.072Z,0
2016-06-14T01:59:54.169Z,0
2016-06-14T02:00:53.000Z,0
2016-06-14T02:01:53.034Z,0
2016-06-14T02:02:53.240Z,0
2016-06-14T02:03:53.290Z,0
2016-06-14T02:05:07.484Z,0
2016-06-14T02:05:53.468Z,0
2016-06-14T02:07:07.835Z,0
2016-06-14T02:08:21.744Z,0
2016-06-14T02:08:53.463Z,0
2016-06-14T02:09:53.497Z,0
2016-06-14T02:10:53.515Z,0
2016-06-14T02:11:53.565Z,0
2016-06-14T02:12:53.600Z,0
2016-06-14T02:13:53.634Z,0
2016-06-14T02:14:53.747Z,0
2016-06-14T02:15:53.718Z,0
2016-06-14T02:16:53.752Z,0
2016-06-14T02:17:53.786Z,0
2016-06-14T02:18:53.837Z,0
2016-06-14T02:19:53.871Z,0
2016-06-14T02:20:53.905Z,0
2016-06-14T02:21:53.956Z,0
2016-06-14T02:22:53.973Z,0
2016-06-14T02:23:53.852Z,0
2016-06-14T02:24:53.887Z,0
2016-06-14T02:25:54.077Z,0
2016-06-14T02:26:54.127Z,0
2016-06-14T02:27:54.161Z,0
2016-06-14T02:28:54.180Z,0
2016-06-14T02:29:54.292Z,0
2016-06-14T02:30:54.264Z,0
2016-06-14T02:31:54.298Z,0
2016-06-14T02:32:54.348Z,0
2016-06-14T02:33:54.382Z,0
2016-06-14T02:34:54.402Z,0
2016-06-14T02:35:54.436Z,0
2016-06-14T02:36:54.485Z,0
2016-06-14T02:37:54.380Z,0
2016-06-14T02:38:54.555Z,0
2016-06-14T02:39:54.589Z,0
2016-06-14T02:40:54.482Z,0
2016-06-14T02:41:54.673Z,0
2016-06-14T02:42:54.552Z,0
2016-06-14T02:43:54.741Z,0
2016-06-14T02:44:55.370Z,0
2016-06-14T02:45:54.827Z,0
2016-06-14T02:46:54.704Z,0
2016-06-14T02:47:54.879Z,0
2016-06-14T02:48:54.789Z,0
2016-06-14T02:49:54.964Z,0
2016-06-14T02:50:54.998Z,0
2016-06-14T02:51:55.032Z,0
2016-06-14T02:52:55.082Z,0
2016-06-14T02:53:55.038Z,0
2016-06-14T02:54:55.260Z,0
2016-06-14T02:55:55.013Z,0
2016-06-14T02:56:55.064Z,0
2016-06-14T02:57:55.394Z,0
2016-06-14T02:58:54.991Z,0
2016-06-14T02:59:55.838Z,0
2016-06-14T03:00:56.012Z,0
2016-06-14T03:01:55.297Z,0
2016-06-14T03:02:55.504Z,0
2016-06-14T03:03:55.710Z,0
2016-06-14T03:04:55.369Z,0
2016-06-14T03:05:55.544Z,0
2016-06-14T03:06:55.594Z,0
2016-06-14T03:07:55.629Z,0
2016-06-14T03:08:55.662Z,0
2016-06-14T03:09:55.696Z,0
2016-06-14T03:10:55.731Z,0
2016-06-14T03:11:55.781Z,0
2016-06-14T03:12:55.800Z,0
2016-06-14T03:13:55.850Z,0
2016-06-14T03:14:57.586Z,0
2016-06-14T03:15:55.933Z,5
2016-06-14T03:16:55.968Z,5
2016-06-14T03:17:55.987Z,5
2016-06-14T03:18:55.865Z,5
2016-06-14T03:19:56.071Z,5
2016-06-14T03:20:56.121Z,5
2016-06-14T03:21:56.140Z,5
2016-06-14T03:22:56.174Z,5
2016-06-14T03:24:14.103Z,10
2016-06-14T03:26:05.936Z,10
2016-06-14T03:27:05.971Z,10
2016-06-14T03:28:06.005Z,10
2016-06-14T03:29:06.039Z,5
2016-06-14T03:30:06.590Z,5
2016-06-14T03:31:06.107Z,5
2016-06-14T03:32:06.158Z,5
2016-06-14T03:33:06.192Z,5
2016-06-14T03:34:06.227Z,5
2016-06-14T03:35:06.105Z,5
2016-06-14T03:36:06.311Z,5
2016-06-14T03:37:06.329Z,5
2016-06-14T03:38:06.380Z,5
2016-06-14T03:39:06.399Z,5
2016-06-14T03:40:06.449Z,10
2016-06-14T03:41:06.482Z,10
2016-06-14T03:42:06.516Z,10
2016-06-14T03:43:06.551Z,5
2016-06-14T03:44:06.586Z,5
2016-06-14T03:45:06.714Z,5
2016-06-14T03:46:06.685Z,5
2016-06-14T03:47:06.688Z,5
2016-06-14T03:48:06.738Z,10
2016-06-14T03:49:06.788Z,10
2016-06-14T03:50:06.822Z,10
2016-06-14T03:51:06.857Z,10
2016-06-14T03:52:06.875Z,10
2016-06-14T03:53:06.910Z,10
2016-06-14T03:54:06.960Z,15
2016-06-14T03:55:06.995Z,15
2016-06-14T03:56:07.028Z,15
2016-06-14T03:57:07.063Z,15
2016-06-14T03:58:07.097Z,15
2016-06-14T03:59:06.991Z,15
2016-06-14T04:00:07.213Z,20
2016-06-14T04:01:07.716Z,20
2016-06-14T04:02:07.250Z,25
2016-06-14T04:03:07.300Z,25
2016-06-14T04:04:07.351Z,25
2016-06-14T04:05:07.368Z,25
2016-06-14T04:06:07.403Z,25
2016-06-14T04:07:07.453Z,25
2016-06-14T04:08:07.472Z,30
2016-06-14T04:09:07.350Z,35
2016-06-14T04:10:07.555Z,45
2016-06-14T04:11:07.575Z,45
2016-06-14T04:12:07.625Z,45
2016-06-14T04:13:07.659Z,45
2016-06-14T04:14:07.693Z,55
2016-06-14T04:15:07.618Z,55
2016-06-14T04:16:08.309Z,55
2016-06-14T04:17:07.796Z,60
2016-06-14T04:18:07.846Z,65
2016-06-14T04:19:07.897Z,60
2016-06-14T04:20:07.915Z,50
2016-06-14T04:21:07.949Z,40
2016-06-14T04:22:07.984Z,30
2016-06-14T04:23:08.033Z,20
2016-06-14T04:24:08.052Z,20
2016-06-14T04:25:08.102Z,25
2016-06-14T04:26:08.137Z,25
2016-06-14T04:27:08.015Z,20
2016-06-14T04:28:08.206Z,20
2016-06-14T04:29:08.255Z,20
2016-06-14T04:30:08.164Z,15
2016-06-14T04:31:08.606Z,15
2016-06-14T04:32:08.374Z,15
2016-06-14T04:33:08.392Z,15
2016-06-14T04:34:08.443Z,20
2016-06-14T04:35:08.477Z,20
2016-06-14T04:36:08.510Z,20
2016-06-14T04:37:08.545Z,20
2016-06-14T04:38:08.580Z,20
2016-06-14T04:39:08.614Z,20
2016-06-14T04:40:08.492Z,20
2016-06-14T04:41:08.683Z,20
2016-06-14T04:42:08.732Z,20
2016-06-14T04:43:08.767Z,20
2016-06-14T04:44:08.801Z,20
2016-06-14T04:45:09.398Z,25
2016-06-14T04:46:08.901Z,20
2016-06-14T04:47:08.952Z,20
2016-06-14T04:48:08.955Z,15
2016-06-14T04:49:09.003Z,15
2016-06-14T04:50:09.007Z,15
2016-06-14T04:51:09.057Z,10
2016-06-14T04:52:09.092Z,10
2016-06-14T04:53:09.157Z,10
2016-06-14T04:54:09.176Z,10
2016-06-14T04:55:09.210Z,10
2016-06-14T04:56:09.088Z,10
2016-06-14T04:57:09.279Z,10
2016-06-14T04:58:09.313Z,10
2016-06-14T04:59:09.347Z,15
2016-06-14T05:00:09.553Z,15
2016-06-14T05:01:09.620Z,20
2016-06-14T05:02:09.463Z,25
2016-06-14T05:03:09.529Z,25
2016-06-14T05:04:09.547Z,25
2016-06-14T05:05:09.425Z,25
2016-06-14T05:06:09.619Z,25
2016-06-14T05:07:09.494Z,30
2016-06-14T05:08:09.687Z,30
2016-06-14T05:09:09.722Z,30
2016-06-14T05:10:09.756Z,35
2016-06-14T05:11:09.791Z,30
2016-06-14T05:12:09.825Z,30
2016-06-14T05:13:09.860Z,30
2016-06-14T05:14:09.910Z,30
2016-06-14T05:15:09.800Z,35
2016-06-14T05:16:10.259Z,45
2016-06-14T05:17:10.012Z,50
2016-06-14T05:18:10.047Z,50
2016-06-14T05:19:10.081Z,55
2016-06-14T05:20:10.115Z,50
2016-06-14T05:21:10.149Z,60
2016-06-14T05:22:10.199Z,60
2016-06-14T05:23:10.218Z,60
2016-06-14T05:24:10.253Z,55
2016-06-14T05:25:10.303Z,55
2016-06-14T05:26:10.368Z,50
2016-06-14T05:27:10.386Z,50
2016-06-14T05:28:10.406Z,60
2016-06-14T05:29:10.456Z,65
2016-06-14T05:30:10.490Z,65
2016-06-14T05:31:10.396Z,65
2016-06-14T05:32:10.398Z,70
2016-06-14T05:33:10.590Z,70
2016-06-14T05:34:10.624Z,90
2016-06-14T05:35:10.658Z,105
2016-06-14T05:36:10.708Z,120
2016-06-14T05:37:10.587Z,135
2016-06-14T05:38:10.776Z,120
2016-06-14T05:39:10.796Z,140
2016-06-14T05:40:10.861Z,140
2016-06-14T05:41:10.879Z,125
2016-06-14T05:42:10.914Z,110
2016-06-14T05:43:10.792Z,115
2016-06-14T05:44:10.999Z,125
2016-06-14T05:45:11.033Z,140
2016-06-14T05:46:10.942Z,150
2016-06-14T05:47:10.836Z,150
2016-06-14T05:48:11.136Z,180
2016-06-14T05:49:11.170Z,230
2016-06-14T05:50:11.205Z,240
2016-06-14T05:51:11.254Z,240
2016-06-14T05:52:11.289Z,230
2016-06-14T05:53:11.167Z,245
2016-06-14T05:54:11.217Z,280
2016-06-14T05:55:11.407Z,335
2016-06-14T05:56:11.442Z,340
2016-06-14T05:57:11.476Z,340
2016-06-14T05:58:11.510Z,275
2016-06-14T05:59:11.545Z,230
2016-06-14T06:00:11.594Z,210
2016-06-14T06:01:12.254Z,230
2016-06-14T06:02:11.663Z,220
2016-06-14T06:03:11.713Z,260
2016-06-14T06:04:11.748Z,240
2016-06-14T06:05:11.782Z,295
2016-06-14T06:06:11.816Z,360
2016-06-14T06:07:11.851Z,375
2016-06-14T06:08:11.885Z,295
2016-06-14T06:09:11.919Z,255
2016-06-14T06:10:11.969Z,290
2016-06-14T06:11:12.003Z,345
2016-06-14T06:12:11.881Z,345
2016-06-14T06:13:12.072Z,350
2016-06-14T06:14:12.106Z,330
2016-06-14T06:15:12.156Z,380
2016-06-14T06:16:12.065Z,385
2016-06-14T06:17:12.226Z,355
2016-06-14T06:18:12.274Z,370
2016-06-14T06:19:12.310Z,355
2016-06-14T06:20:12.343Z,335
2016-06-14T06:21:12.377Z,360
2016-06-14T06:22:12.428Z,335
2016-06-14T06:23:12.462Z,320
2016-06-14T06:24:12.497Z,310
2016-06-14T06:25:12.531Z,295
2016-06-14T06:26:12.581Z,280
2016-06-14T06:27:12.615Z,245
2016-06-14T06:28:12.665Z,210
2016-06-14T06:29:12.684Z,170
2016-06-14T06:30:12.718Z,150
2016-06-14T06:31:12.909Z,150
2016-06-14T06:32:12.803Z,180
2016-06-14T06:33:12.837Z,255
2016-06-14T06:34:12.887Z,255
2016-06-14T06:35:12.765Z,255
2016-06-14T06:36:12.955Z,255
2016-06-14T06:37:12.865Z,260
2016-06-14T06:38:13.040Z,230
2016-06-14T06:39:13.089Z,210
2016-06-14T06:40:13.108Z,205
2016-06-14T06:41:13.158Z,175
2016-06-14T06:42:13.192Z,140
2016-06-14T06:43:13.227Z,140
2016-06-14T06:44:13.261Z,145
2016-06-14T06:45:12.998Z,140
2016-06-14T06:46:13.511Z,135
2016-06-14T06:47:13.445Z,155
2016-06-14T06:48:13.534Z,190
2016-06-14T06:49:13.435Z,215
2016-06-14T06:50:13.681Z,230
2016-06-14T06:51:13.754Z,235
2016-06-14T06:52:13.786Z,230
2016-06-14T06:53:13.695Z,210
2016-06-14T06:54:13.883Z,185
2016-06-14T06:55:13.979Z,180
2016-06-14T06:56:14.006Z,175
2016-06-14T06:57:14.061Z,160
2016-06-14T06:58:14.084Z,145
2016-06-14T06:59:14.124Z,160
2016-06-14T07:00:14.163Z,155
2016-06-14T07:01:15.247Z,150
2016-06-14T07:02:14.268Z,135
2016-06-14T07:03:14.289Z,135
2016-06-14T07:04:14.324Z,125
2016-06-14T07:05:14.377Z,125
2016-06-14T07:06:14.427Z,135
2016-06-14T07:07:14.290Z,145
2016-06-14T07:08:14.481Z,160
2016-06-14T07:09:14.532Z,170
2016-06-14T07:10:14.409Z,195
2016-06-14T07:11:14.445Z,210
2016-06-14T07:12:14.652Z,220
2016-06-14T07:13:14.670Z,270
2016-06-14T07:14:14.564Z,275
2016-06-14T07:15:14.771Z,275
2016-06-14T07:16:15.805Z,280
2016-06-14T07:17:14.840Z,255
2016-06-14T07:18:14.858Z,245
2016-06-14T07:19:14.892Z,240
2016-06-14T07:20:14.943Z,240
2016-06-14T07:21:14.977Z,250
2016-06-14T07:22:14.871Z,250
2016-06-14T07:23:15.046Z,245
2016-06-14T07:24:15.080Z,240
2016-06-14T07:25:15.130Z,235
2016-06-14T07:26:15.164Z,230
2016-06-14T07:27:15.199Z,220
2016-06-14T07:28:15.249Z,210
2016-06-14T07:29:15.283Z,210
2016-06-14T07:30:15.317Z,210
2016-06-14T07:31:15.273Z,215
2016-06-14T07:32:15.401Z,215
2016-06-14T07:33:15.436Z,225
2016-06-14T07:34:15.486Z,235
2016-06-14T07:35:15.520Z,250
2016-06-14T07:36:15.539Z,265
2016-06-14T07:37:15.605Z,270
2016-06-14T07:38:15.622Z,260
2016-06-14T07:39:15.657Z,260
2016-06-14T07:40:15.707Z,270
2016-06-14T07:41:15.742Z,280
2016-06-14T07:42:15.776Z,335
2016-06-14T07:43:15.810Z,290
2016-06-14T07:44:15.860Z,265
2016-06-14T07:45:15.879Z,275
2016-06-14T07:46:15.664Z,280
2016-06-14T07:47:15.963Z,290
2016-06-14T07:48:16.013Z,215
2016-06-14T07:49:16.064Z,170
2016-06-14T07:50:16.082Z,195
2016-06-14T07:51:16.147Z,200
2016-06-14T07:52:16.151Z,180
2016-06-14T07:53:16.216Z,170
2016-06-14T07:54:16.250Z,140
2016-06-14T07:55:16.285Z,205
2016-06-14T07:56:16.319Z,240
2016-06-14T07:57:16.353Z,320
2016-06-14T07:58:16.388Z,445
2016-06-14T07:59:16.422Z,590
2016-06-14T08:00:16.472Z,575
2016-06-14T08:01:16.522Z,480
2016-06-14T08:02:16.540Z,425
2016-06-14T08:03:16.591Z,505
2016-06-14T08:04:16.610Z,450
2016-06-14T08:05:16.659Z,345
2016-06-14T08:06:16.709Z,250
2016-06-14T08:07:16.743Z,260
2016-06-14T08:08:16.622Z,255
2016-06-14T08:09:16.812Z,195
2016-06-14T08:10:16.706Z,190
2016-06-14T08:11:16.881Z,185
2016-06-14T08:12:16.931Z,175
2016-06-14T08:13:16.980Z,165
2016-06-14T08:14:16.999Z,135
2016-06-14T08:15:16.893Z,95
2016-06-14T08:16:17.693Z,80
2016-06-14T08:17:16.992Z,90
2016-06-14T08:18:16.995Z,115
2016-06-14T08:19:17.187Z,125
2016-06-14T08:20:17.237Z,120
2016-06-14T08:21:17.271Z,110
2016-06-14T08:22:17.305Z,90
2016-06-14T08:23:17.496Z,85
2016-06-14T08:24:17.405Z,95
2016-06-14T08:25:17.425Z,100
2016-06-14T08:26:17.458Z,120
2016-06-14T08:27:17.336Z,145
2016-06-14T08:28:17.542Z,145
2016-06-14T08:29:17.577Z,120
2016-06-14T08:30:17.611Z,115
2016-06-14T08:31:18.535Z,120
2016-06-14T08:32:17.696Z,115
2016-06-14T08:33:17.589Z,115
2016-06-14T08:34:17.763Z,120
2016-06-14T08:35:17.814Z,180
2016-06-14T08:36:17.833Z,140
2016-06-14T08:37:17.867Z,110
2016-06-14T08:38:17.917Z,90
2016-06-14T08:39:17.951Z,80
2016-06-14T08:40:18.001Z,80
2016-06-14T08:41:18.019Z,105
2016-06-14T08:42:17.773Z,120
2016-06-14T08:43:18.105Z,120
2016-06-14T08:44:18.169Z,165
2016-06-14T08:45:18.189Z,290
2016-06-14T08:46:19.347Z,315
2016-06-14T08:47:18.257Z,410
2016-06-14T08:48:18.307Z,385
2016-06-14T08:49:18.341Z,425
2016-06-14T08:50:18.407Z,480
2016-06-14T08:51:18.411Z,455
2016-06-14T08:52:18.444Z,460
2016-06-14T08:53:18.494Z,435
2016-06-14T08:54:18.513Z,455
2016-06-14T08:55:18.563Z,485
2016-06-14T08:56:18.597Z,455
2016-06-14T08:57:18.648Z,415
2016-06-14T08:58:18.697Z,420
2016-06-14T08:59:18.574Z,390
2016-06-14T09:00:18.828Z,385
2016-06-14T09:01:18.847Z,400
2016-06-14T09:02:18.834Z,360
2016-06-14T09:03:18.869Z,410
2016-06-14T09:04:18.934Z,405
2016-06-14T09:05:18.797Z,375
2016-06-14T09:06:18.987Z,390
2016-06-14T09:07:19.021Z,350
2016-06-14T09:08:19.057Z,265
2016-06-14T09:09:19.106Z,230
2016-06-14T09:10:19.140Z,175
2016-06-14T09:11:19.033Z,140
2016-06-14T09:12:19.224Z,160
2016-06-14T09:13:19.259Z,155
2016-06-14T09:14:19.153Z,105
2016-06-14T09:15:19.328Z,100
2016-06-14T09:16:19.862Z,175
2016-06-14T09:17:19.427Z,270
2016-06-14T09:18:19.446Z,300
2016-06-14T09:19:19.480Z,260
2016-06-14T09:20:19.546Z,295
2016-06-14T09:21:19.565Z,475
2016-06-14T09:22:19.614Z,415
2016-06-14T09:23:19.337Z,345
2016-06-14T09:24:19.684Z,430
2016-06-14T09:25:19.718Z,525
2016-06-14T09:26:19.768Z,415
2016-06-14T09:27:19.802Z,540
2016-06-14T09:28:19.852Z,375
2016-06-14T09:29:19.886Z,365
2016-06-14T09:30:19.920Z,325
2016-06-14T09:31:20.814Z,235
2016-06-14T09:32:20.973Z,180
2016-06-14T09:33:20.039Z,200
2016-06-14T09:34:20.074Z,385
2016-06-14T09:35:20.123Z,365
2016-06-14T09:36:20.173Z,355
2016-06-14T09:37:20.192Z,410
2016-06-14T09:38:20.227Z,555
2016-06-14T09:39:20.261Z,525
2016-06-14T09:40:20.311Z,515
2016-06-14T09:41:20.344Z,380
2016-06-14T09:42:20.379Z,360
2016-06-14T09:43:20.445Z,245
2016-06-14T09:44:20.448Z,250
2016-06-14T09:45:20.499Z,235
2016-06-14T09:46:20.532Z,220
2016-06-14T09:47:20.583Z,270
2016-06-14T09:48:20.616Z,295
2016-06-14T09:49:20.650Z,375
2016-06-14T09:50:20.701Z,605
2016-06-14T09:51:20.734Z,490
2016-06-14T09:52:20.770Z,415
2016-06-14T09:53:20.803Z,425
2016-06-14T09:54:20.869Z,450
2016-06-14T09:55:20.888Z,455
2016-06-14T09:56:20.954Z,415
2016-06-14T09:57:20.972Z,525
2016-06-14T09:58:21.006Z,550
2016-06-14T09:59:21.056Z,555
2016-06-14T10:00:21.091Z,495
2016-06-14T10:01:21.047Z,470
2016-06-14T10:02:21.035Z,495
2016-06-14T10:03:21.210Z,445
2016-06-14T10:04:21.243Z,515
2016-06-14T10:05:21.294Z,490
2016-06-14T10:06:21.344Z,405
2016-06-14T10:07:21.222Z,355
2016-06-14T10:08:21.412Z,340
2016-06-14T10:09:21.447Z,330
2016-06-14T10:10:21.497Z,295
2016-06-14T10:11:21.531Z,285
2016-06-14T10:12:21.581Z,295
2016-06-14T10:13:21.459Z,260
2016-06-14T10:14:21.665Z,245
2016-06-14T10:15:21.715Z,265
2016-06-14T10:16:22.061Z,320
2016-06-14T10:17:22.143Z,350
2016-06-14T10:18:21.662Z,340
2016-06-14T10:19:21.853Z,300
2016-06-14T10:20:21.886Z,260
2016-06-14T10:21:21.937Z,230
2016-06-14T10:22:21.971Z,190
2016-06-14T10:23:22.021Z,170
2016-06-14T10:24:22.055Z,155
2016-06-14T10:25:22.105Z,115
2016-06-14T10:26:22.139Z,85
2016-06-14T10:27:22.174Z,70
2016-06-14T10:28:22.224Z,60
2016-06-14T10:29:22.242Z,60
2016-06-14T10:30:22.292Z,70
2016-06-14T10:31:23.279Z,70
2016-06-14T10:32:22.329Z,80
2016-06-14T10:33:22.411Z,85
2016-06-14T10:34:22.289Z,110
2016-06-14T10:35:22.338Z,135
2016-06-14T10:36:22.530Z,170
2016-06-14T10:37:22.564Z,190
2016-06-14T10:38:22.614Z,230
2016-06-14T10:39:22.632Z,280
2016-06-14T10:40:22.683Z,345
2016-06-14T10:41:22.748Z,495
2016-06-14T10:42:22.766Z,730
2016-06-14T10:43:22.816Z,595
2016-06-14T10:44:22.836Z,545
2016-06-14T10:45:22.714Z,680
2016-06-14T10:46:22.778Z,935
2016-06-14T10:47:24.064Z,1035
2016-06-14T10:48:22.988Z,1010
2016-06-14T10:49:23.022Z,890
2016-06-14T10:50:23.073Z,945
2016-06-14T10:51:23.107Z,595
2016-06-14T10:52:23.157Z,595
2016-06-14T10:53:23.191Z,680
2016-06-14T10:54:23.070Z,730
2016-06-14T10:55:23.135Z,585
2016-06-14T10:56:23.309Z,690
2016-06-14T10:57:23.360Z,700
2016-06-14T10:58:23.394Z,365
2016-06-14T10:59:23.443Z,520
2016-06-14T11:00:23.462Z,420
2016-06-14T11:01:24.029Z,800
2016-06-14T11:02:23.719Z,620
2016-06-14T11:03:23.613Z,855
2016-06-14T11:04:23.647Z,1855
2016-06-14T11:05:23.525Z,1065
2016-06-14T11:06:23.715Z,2125
2016-06-14T11:07:23.765Z,925
2016-06-14T11:08:23.800Z,695
2016-06-14T11:09:23.834Z,620
2016-06-14T11:10:23.884Z,765
2016-06-14T11:11:23.918Z,415
2016-06-14T11:12:23.968Z,390
2016-06-14T11:13:24.018Z,330
2016-06-14T11:14:24.052Z,310
2016-06-14T11:15:24.118Z,280
2016-06-14T11:16:24.325Z,365
2016-06-14T11:17:24.202Z,315
2016-06-14T11:18:24.221Z,310
2016-06-14T11:19:24.271Z,270
2016-06-14T11:20:24.149Z,230
2016-06-14T11:21:24.356Z,210
2016-06-14T11:22:24.389Z,420
2016-06-14T11:23:24.456Z,1290
2016-06-14T11:24:24.490Z,1280
2016-06-14T11:25:24.523Z,1310
2016-06-14T11:26:24.418Z,1335
2016-06-14T11:27:24.609Z,1370
2016-06-14T11:28:24.642Z,1235
2016-06-14T11:29:24.677Z,1375
2016-06-14T11:30:24.727Z,405
2016-06-14T11:31:25.183Z,285
2016-06-14T11:32:24.764Z,225
2016-06-14T11:33:24.861Z,205
2016-06-14T11:34:24.911Z,250
2016-06-14T11:35:24.945Z,335
2016-06-14T11:36:24.995Z,410
2016-06-14T11:37:25.030Z,380
2016-06-14T11:38:25.096Z,340
2016-06-14T11:39:25.130Z,330
2016-06-14T11:40:25.180Z,355
2016-06-14T11:41:25.229Z,365
2016-06-14T11:42:25.280Z,455
2016-06-14T11:43:25.298Z,525
2016-06-14T11:44:25.348Z,550
2016-06-14T11:45:25.382Z,595
2016-06-14T11:46:27.526Z,580
2016-06-14T11:47:28.388Z,575
2016-06-14T11:48:27.094Z,615
2016-06-14T11:49:27.441Z,560
2016-06-14T11:50:25.601Z,550
2016-06-14T11:51:25.636Z,980
2016-06-14T11:52:25.686Z,540
2016-06-14T11:53:25.720Z,1040
2016-06-14T11:54:25.769Z,570
2016-06-14T11:55:25.788Z,770
2016-06-14T11:56:25.854Z,625
2016-06-14T11:57:25.887Z,555
2016-06-14T11:58:25.954Z,515
2016-06-14T11:59:25.988Z,545
2016-06-14T12:00:26.022Z,560
2016-06-14T12:01:26.619Z,440
2016-06-14T12:02:26.169Z,370
2016-06-14T12:03:26.173Z,340
2016-06-14T12:04:26.191Z,340
2016-06-14T12:05:26.241Z,355
2016-06-14T12:06:26.274Z,355
2016-06-14T12:07:26.324Z,425
2016-06-14T12:08:26.219Z,510
2016-06-14T12:09:26.394Z,490
2016-06-14T12:10:26.147Z,560
2016-06-14T12:11:26.353Z,500
2016-06-14T12:12:26.528Z,450
2016-06-14T12:13:26.562Z,700
2016-06-14T12:14:26.581Z,645
2016-06-14T12:15:26.647Z,720
2016-06-14T12:16:27.977Z,530
2016-06-14T12:17:26.809Z,455
2016-06-14T12:18:26.780Z,385
2016-06-14T12:19:26.847Z,305
2016-06-14T12:20:26.864Z,280
2016-06-14T12:21:26.900Z,245
2016-06-14T12:22:26.793Z,230
2016-06-14T12:23:26.984Z,230
2016-06-14T12:24:27.017Z,245
2016-06-14T12:25:27.083Z,310
2016-06-14T12:26:27.103Z,350
2016-06-14T12:27:27.152Z,365
2016-06-14T12:28:27.217Z,405
2016-06-14T12:29:27.236Z,405
2016-06-14T12:30:27.286Z,395
2016-06-14T12:31:27.320Z,380
2016-06-14T12:32:27.511Z,355
2016-06-14T12:33:27.405Z,355
2016-06-14T12:34:27.440Z,340
2016-06-14T12:35:27.489Z,345
2016-06-14T12:36:27.524Z,355
2016-06-14T12:37:27.402Z,355
2016-06-14T12:38:27.609Z,355
2016-06-14T12:39:27.642Z,345
2016-06-14T12:40:27.692Z,350
2016-06-14T12:41:27.712Z,345
2016-06-14T12:42:27.776Z,315
2016-06-14T12:43:27.795Z,305
2016-06-14T12:44:27.861Z,300
2016-06-14T12:45:27.911Z,300
2016-06-14T12:46:27.930Z,310
2016-06-14T12:47:27.870Z,315
2016-06-14T12:48:28.014Z,330
2016-06-14T12:49:28.049Z,350
2016-06-14T12:50:28.114Z,365
2016-06-14T12:51:28.133Z,390
2016-06-14T12:52:28.166Z,400
2016-06-14T12:53:28.216Z,400
2016-06-14T12:54:28.266Z,405
2016-06-14T12:55:28.301Z,410
2016-06-14T12:56:28.336Z,425
2016-06-14T12:57:28.386Z,430
2016-06-14T12:58:28.435Z,440
2016-06-14T12:59:28.470Z,515
2016-06-14T13:00:28.348Z,465
2016-06-14T13:01:28.554Z,490
2016-06-14T13:02:29.057Z,560
2016-06-14T13:03:28.638Z,535
2016-06-14T13:04:28.657Z,540
2016-06-14T13:05:28.706Z,605
2016-06-14T13:06:28.756Z,845
2016-06-14T13:07:28.791Z,770
2016-06-14T13:08:28.841Z,635
2016-06-14T13:09:28.719Z,670
2016-06-14T13:10:28.926Z,645
2016-06-14T13:11:28.960Z,645
2016-06-14T13:12:28.994Z,730
2016-06-14T13:13:29.060Z,1130
2016-06-14T13:14:29.094Z,800
2016-06-14T13:15:29.144Z,890
2016-06-14T13:16:29.178Z,1280
2016-06-14T13:17:29.353Z,1065
2016-06-14T13:18:29.279Z,1030
2016-06-14T13:19:29.312Z,1140
2016-06-14T13:20:29.347Z,845
2016-06-14T13:21:29.396Z,1705
2016-06-14T13:22:29.431Z,850
2016-06-14T13:23:29.481Z,655
2016-06-14T13:24:29.515Z,675
2016-06-14T13:25:29.565Z,1290
2016-06-14T13:26:29.631Z,1025
2016-06-14T13:27:29.649Z,790
2016-06-14T13:28:29.700Z,1770
2016-06-14T13:29:29.593Z,1155
2016-06-14T13:30:29.799Z,550
2016-06-14T13:31:29.833Z,1340
2016-06-14T13:32:30.275Z,725
2016-06-14T13:33:29.918Z,1430
2016-06-14T13:34:29.811Z,1335
2016-06-14T13:35:30.018Z,1135
2016-06-14T13:36:30.068Z,1065
2016-06-14T13:37:30.102Z,1220
2016-06-14T13:38:30.137Z,1505
2016-06-14T13:39:30.186Z,545
2016-06-14T13:40:30.252Z,1330
2016-06-14T13:41:30.302Z,640
2016-06-14T13:42:30.336Z,345
2016-06-14T13:43:30.387Z,305
2016-06-14T13:44:30.420Z,265
2016-06-14T13:45:30.471Z,230
2016-06-14T13:46:30.521Z,195
2016-06-14T13:47:30.414Z,185
2016-06-14T13:48:30.605Z,180
2016-06-14T13:49:30.654Z,180
2016-06-14T13:50:30.564Z,190
2016-06-14T13:51:30.739Z,185
2016-06-14T13:52:30.773Z,170
2016-06-14T13:53:30.823Z,165
2016-06-14T13:54:30.889Z,155
2016-06-14T13:55:30.907Z,145
2016-06-14T13:56:30.973Z,135
2016-06-14T13:57:31.008Z,130
2016-06-14T13:58:31.041Z,125
2016-06-14T13:59:31.092Z,120
2016-06-14T14:00:30.969Z,115
2016-06-14T14:01:31.175Z,125
2016-06-14T14:02:31.804Z,135
2016-06-14T14:03:31.275Z,145
2016-06-14T14:04:31.295Z,160
2016-06-14T14:05:31.329Z,205
2016-06-14T14:06:31.394Z,285